Time;durP1;ratioP1;P1;durP2;ratioP2;P2;SDS_P1;SDS_P2;PMS_P1;PMS_P2;Temp;Humidity;BMP_temperature;BMP_pressure;BME280_temperature;BME280_humidity;BME280_pressure;Samples;Min_cycle;Max_cycle;Signal;HPM_P1;HPM_P2
2021/06/04 00:00:23;;;;;;;29.10;11.32;;;16.10;74.20;;;;;;5099613;28;20073;-70
2021/06/04 00:02:50;;;;;;;32.03;10.80;;;16.10;74.20;;;;;;5093958;28;20020;-71
2021/06/04 00:05:19;;;;;;;25.08;10.48;;;16.10;74.20;;;;;;5100292;28;20022;-77
2021/06/04 00:07:46;;;;;;;31.85;12.82;;;16.10;74.20;;;;;;5098033;28;20489;-77
2021/06/04 00:10:22;;;;;;;24.05;9.25;;;16.10;74.10;;;;;;5100209;28;20028;-70
2021/06/04 00:12:48;;;;;;;24.85;8.77;;;16.20;74.10;;;;;;5088219;28;20095;-78
2021/06/04 00:15:18;;;;;;;20.00;8.20;;;16.10;74.00;;;;;;5098399;28;20087;-77
2021/06/04 00:17:45;;;;;;;21.77;7.78;;;16.10;74.00;;;;;;5094249;28;20036;-71
2021/06/04 00:20:22;;;;;;;17.83;7.93;;;16.10;73.90;;;;;;5091915;28;20688;-71
2021/06/04 00:22:49;;;;;;;18.17;7.65;;;16.10;73.70;;;;;;5094824;28;20027;-71
2021/06/04 00:25:15;;;;;;;15.68;7.03;;;16.10;73.70;;;;;;5092159;28;20124;-76
2021/06/04 00:27:42;;;;;;;16.70;6.20;;;16.10;73.70;;;;;;5094327;28;20046;-70
2021/06/04 00:30:11;;;;;;;20.23;7.03;;;16.10;73.50;;;;;;5091100;28;20004;-70
2021/06/04 00:32:38;;;;;;;19.20;7.32;;;16.10;73.40;;;;;;5094533;28;20556;-71
2021/06/04 00:35:07;;;;;;;17.13;6.13;;;16.10;73.20;;;;;;5089434;28;20020;-71
2021/06/04 00:37:33;;;;;;;14.73;6.00;;;16.00;73.00;;;;;;5097492;28;20501;-73
2021/06/04 00:40:00;;;;;;;22.65;6.38;;;16.00;72.90;;;;;;5091690;28;20102;-76
2021/06/04 00:42:33;;;;;;;10.05;5.63;;;16.00;72.70;;;;;;5092765;28;20111;-70
2021/06/04 00:45:01;;;;;;;20.92;5.65;;;16.00;72.50;;;;;;5098636;28;20028;-72
2021/06/04 00:47:30;;;;;;;11.35;5.75;;;16.00;72.40;;;;;;5089931;28;20030;-71
2021/06/04 00:49:57;;;;;;;11.48;5.20;;;16.00;72.20;;;;;;5087236;28;20024;-71
2021/06/04 00:52:29;;;;;;;12.02;6.47;;;15.90;72.00;;;;;;5091070;28;20028;-80
2021/06/04 00:54:57;;;;;;;10.70;5.70;;;16.00;72.00;;;;;;5088819;28;20008;-73
2021/06/04 00:57:25;;;;;;;14.73;5.57;;;15.90;71.90;;;;;;5091837;28;20032;-71
2021/06/04 01:00:00;;;;;;;16.17;6.10;;;15.90;71.90;;;;;;5088735;28;20024;-72
2021/06/04 01:02:27;;;;;;;;;;;15.90;71.80;;;;;;5084635;28;20552;-70
2021/06/04 01:04:54;;;;;;;12.70;5.18;;;15.90;71.80;;;;;;5086631;28;20010;-71
2021/06/04 01:07:26;;;;;;;17.83;6.05;;;15.80;71.80;;;;;;5088551;28;20455;-70
2021/06/04 01:09:58;;;;;;;17.98;7.18;;;15.80;72.00;;;;;;5090965;28;20056;-78
2021/06/04 01:12:54;;;;;;;16.05;6.32;;;15.80;72.20;;;;;;5083671;28;20101;-70
2021/06/04 01:15:29;;;;;;;25.45;8.63;;;15.80;72.40;;;;;;5082708;28;20610;-76
2021/06/04 01:18:26;;;;;;;25.27;9.23;;;15.80;72.80;;;;;;5092723;28;20028;-71
2021/06/04 01:21:05;;;;;;;22.33;8.98;;;15.80;73.00;;;;;;5085419;28;20036;-73
2021/06/04 01:23:53;;;;;;;18.42;7.40;;;15.80;73.20;;;;;;5087838;28;20028;-71
2021/06/04 01:26:34;;;;;;;24.08;9.00;;;15.80;73.40;;;;;;5087566;28;20410;-79
2021/06/04 01:29:09;;;;;;;16.38;7.22;;;15.80;73.50;;;;;;5088986;28;20024;-71
2021/06/04 01:32:00;;;;;;;19.00;8.02;;;15.80;73.60;;;;;;5092548;28;20029;-76
2021/06/04 01:34:36;;;;;;;18.95;6.93;;;15.80;73.70;;;;;;5080548;28;20396;-79
2021/06/04 01:37:05;;;;;;;16.33;7.13;;;15.80;73.80;;;;;;5093756;28;20036;-80
2021/06/04 01:39:39;;;;;;;17.75;6.65;;;15.70;73.80;;;;;;5086877;28;20058;-75
2021/06/04 01:42:11;;;;;;;16.60;7.28;;;15.80;73.90;;;;;;5091279;28;20029;-72
2021/06/04 01:44:55;;;;;;;20.88;7.95;;;15.70;73.90;;;;;;5085199;28;20374;-78
2021/06/04 01:47:39;;;;;;;19.13;7.68;;;15.70;74.00;;;;;;5083630;28;20551;-72
2021/06/04 01:50:21;;;;;;;18.73;6.68;;;15.80;74.20;;;;;;5090693;28;20020;-79
2021/06/04 01:52:49;;;;;;;23.50;7.28;;;15.70;74.30;;;;;;5085789;28;20081;-77
2021/06/04 01:55:24;;;;;;;15.30;6.88;;;15.70;74.50;;;;;;5091932;28;20564;-75
2021/06/04 01:58:25;;;;;;;17.95;7.53;;;15.80;74.80;;;;;;5089328;28;20035;-78
2021/06/04 02:00:58;;;;;;;26.95;8.95;;;15.80;74.90;;;;;;5083507;28;20017;-72
2021/06/04 02:03:24;;;;;;;26.45;7.00;;;15.80;75.20;;;;;;5086282;28;20093;-79
2021/06/04 02:05:54;;;;;;;24.40;8.20;;;15.70;75.20;;;;;;5090168;28;20027;-72
2021/06/04 02:08:30;;;;;;;22.15;7.57;;;15.70;75.30;;;;;;5094006;28;20019;-72
2021/06/04 02:10:57;;;;;;;17.98;6.63;;;15.70;75.40;;;;;;5092420;28;20036;-71
2021/06/04 02:13:24;;;;;;;19.38;7.22;;;15.70;75.40;;;;;;5088343;28;20038;-80
2021/06/04 02:16:02;;;;;;;16.67;7.85;;;15.70;75.50;;;;;;5089777;28;20028;-72
2021/06/04 02:18:40;;;;;;;20.98;8.15;;;15.70;75.50;;;;;;5081426;28;20479;-72
2021/06/04 02:21:15;;;;;;;16.42;7.07;;;15.70;75.50;;;;;;5090898;28;20028;-72
2021/06/04 02:24:17;;;;;;;19.30;7.28;;;15.70;75.60;;;;;;5093305;28;20436;-80
2021/06/04 02:26:55;;;;;;;23.27;7.82;;;15.70;75.70;;;;;;5054161;28;20135;-76
2021/06/04 02:29:50;;;;;;;33.78;10.82;;;15.70;75.90;;;;;;5085972;28;20095;-72
2021/06/04 02:32:25;;;;;;;21.83;8.82;;;15.70;76.00;;;;;;5089823;28;20019;-73
2021/06/04 02:35:20;;;;;;;19.40;8.27;;;15.70;76.20;;;;;;5080884;28;20045;-81
2021/06/04 02:37:54;;;;;;;19.65;8.82;;;15.70;76.40;;;;;;5087652;28;20101;-73
2021/06/04 02:40:30;;;;;;;20.50;8.68;;;15.70;76.40;;;;;;5085729;28;20081;-79
2021/06/04 02:43:14;;;;;;;25.63;8.50;;;15.70;76.50;;;;;;5088477;28;20024;-74
2021/06/04 02:46:06;;;;;;;24.63;8.82;;;15.70;76.50;;;;;;5093628;28;20462;-73
2021/06/04 02:48:33;;;;;;;20.42;8.90;;;15.70;77.30;;;;;;5084086;28;20016;-73
2021/06/04 02:51:06;;;;;;;23.92;10.27;;;15.60;76.70;;;;;;5095615;28;20020;-72
2021/06/04 02:53:37;;;;;;;26.27;9.43;;;15.60;76.80;;;;;;5089094;28;20028;-72
2021/06/04 02:56:16;;;;;;;18.10;9.32;;;15.70;76.90;;;;;;5092485;28;20499;-78
2021/06/04 02:58:48;;;;;;;25.08;7.95;;;15.60;76.90;;;;;;5085622;28;20486;-72
2021/06/04 03:01:16;;;;;;;26.15;7.78;;;15.60;77.00;;;;;;5095186;28;20016;-72
2021/06/04 03:03:46;;;;;;;20.08;7.07;;;15.60;77.10;;;;;;5095940;28;20020;-72
2021/06/04 03:06:14;;;;;;;25.77;7.07;;;15.60;77.20;;;;;;5093642;28;20020;-72
2021/06/04 03:08:43;;;;;;;19.90;7.05;;;15.60;77.40;;;;;;5097879;28;20109;-71
2021/06/04 03:11:12;;;;;;;20.30;6.70;;;15.60;77.50;;;;;;5096121;28;20121;-80
2021/06/04 03:13:39;;;;;;;23.92;7.25;;;15.60;77.60;;;;;;5093827;28;20077;-71
2021/06/04 03:16:14;;;;;;;17.63;6.55;;;15.60;77.70;;;;;;5093797;28;20066;-71
2021/06/04 03:18:49;;;;;;;19.75;5.53;;;15.60;77.80;;;;;;5095810;28;20375;-73
2021/06/04 03:22:04;;;;;;;16.88;6.35;;;15.60;77.80;;;;;;5089503;28;20067;-72
2021/06/04 03:24:35;;;;;;;18.00;4.82;;;15.60;77.90;;;;;;5088516;28;20039;-73
2021/06/04 03:27:03;;;;;;;15.80;5.90;;;15.60;77.90;;;;;;5094312;28;20509;-78
2021/06/04 03:29:30;;;;;;;21.90;6.57;;;15.60;77.90;;;;;;5091230;27;20508;-73
2021/06/04 03:32:05;;;;;;;17.00;4.68;;;15.60;77.90;;;;;;5092865;28;20024;-72
2021/06/04 03:34:31;;;;;;;19.23;5.57;;;15.60;77.90;;;;;;5092041;28;20028;-72
2021/06/04 03:37:00;;;;;;;17.02;4.57;;;15.50;78.50;;;;;;5092407;28;20047;-80
2021/06/04 03:39:37;;;;;;;21.45;6.35;;;15.60;78.00;;;;;;5088039;28;20379;-72
2021/06/04 03:42:06;;;;;;;20.33;4.72;;;15.60;78.00;;;;;;5089393;28;20020;-76
2021/06/04 03:44:36;;;;;;;15.77;6.05;;;15.60;78.10;;;;;;5093319;28;20047;-80
2021/06/04 03:47:04;;;;;;;16.63;4.25;;;15.50;78.00;;;;;;5093097;28;20028;-73
2021/06/04 03:49:31;;;;;;;15.02;4.38;;;15.50;77.90;;;;;;5094081;28;20038;-80
2021/06/04 03:51:59;;;;;;;17.92;5.20;;;15.50;77.90;;;;;;5090480;28;20017;-80
2021/06/04 03:54:34;;;;;;;10.73;3.80;;;15.50;78.50;;;;;;5092810;28;20413;-75
2021/06/04 03:57:04;;;;;;;14.63;3.75;;;15.50;77.80;;;;;;5090432;28;20124;-72
2021/06/04 03:59:30;;;;;;;16.45;5.20;;;15.50;77.90;;;;;;5096102;28;20027;-73
2021/06/04 04:02:01;;;;;;;18.17;3.75;;;15.50;77.80;;;;;;5092456;28;20027;-72
2021/06/04 04:04:28;;;;;;;16.02;7.13;;;15.50;77.80;;;;;;5094990;28;20020;-74
2021/06/04 04:06:55;;;;;;;20.83;9.48;;;15.50;77.80;;;;;;5093076;28;20020;-71
2021/06/04 04:09:22;;;;;;;22.35;9.25;;;15.50;77.90;;;;;;5093683;27;20016;-70
2021/06/04 04:11:51;;;;;;;16.65;6.35;;;15.50;77.90;;;;;;5107243;27;20020;-71
2021/06/04 04:14:18;;;;;;;14.55;6.25;;;15.40;77.80;;;;;;5089012;28;20565;-71
2021/06/04 04:16:45;;;;;;;15.85;5.43;;;15.50;77.90;;;;;;5090858;28;20482;-70
2021/06/04 04:19:11;;;;;;;17.70;5.07;;;15.40;77.80;;;;;;5094807;28;20024;-77
2021/06/04 04:21:40;;;;;;;18.05;6.30;;;15.40;77.70;;;;;;5088584;28;20031;-70
2021/06/04 04:24:14;;;;;;;15.13;4.55;;;15.40;77.70;;;;;;5084703;28;20032;-70
2021/06/04 04:26:43;;;;;;;17.27;6.37;;;15.40;77.70;;;;;;5088590;28;20047;-71
2021/06/04 04:29:10;;;;;;;14.30;5.00;;;15.40;77.60;;;;;;5093625;28;20409;-72
2021/06/04 04:31:42;;;;;;;17.38;7.20;;;15.40;77.60;;;;;;5090595;28;20069;-71
2021/06/04 04:34:10;;;;;;;111.40;69.57;;;15.40;77.60;;;;;;5089741;28;20116;-72
2021/06/04 04:36:47;;;;;;;86.05;57.58;;;15.40;77.60;;;;;;5083838;28;20032;-71
2021/06/04 04:39:20;;;;;;;66.95;40.33;;;15.30;77.90;;;;;;5092098;28;20145;-73
2021/06/04 04:42:26;;;;;;;50.47;30.05;;;15.30;77.90;;;;;;5088870;28;20051;-71
2021/06/04 04:44:57;;;;;;;46.58;22.08;;;15.30;77.80;;;;;;5088204;28;20036;-71
2021/06/04 04:47:25;;;;;;;33.95;15.75;;;15.30;77.70;;;;;;5085443;28;20022;-70
2021/06/04 04:49:52;;;;;;;21.63;11.65;;;15.30;77.60;;;;;;5087649;28;20024;-75
2021/06/04 04:52:40;;;;;;;23.67;10.85;;;15.30;77.50;;;;;;5089760;28;20027;-73
2021/06/04 04:55:10;;;;;;;19.50;7.65;;;15.30;77.50;;;;;;5082965;28;20109;-76
2021/06/04 04:57:46;;;;;;;21.60;8.05;;;15.30;77.40;;;;;;5090394;28;20036;-76
2021/06/04 05:00:54;;;;;;;12.38;5.30;;;15.30;77.30;;;;;;5090890;28;20359;-70
2021/06/04 05:03:33;;;;;;;12.57;4.63;;;15.20;77.10;;;;;;5093656;28;20097;-73
2021/06/04 05:06:00;;;;;;;15.05;4.60;;;15.20;77.10;;;;;;5078301;28;20028;-71
2021/06/04 05:08:27;;;;;;;10.45;4.18;;;15.20;77.10;;;;;;5098125;28;20095;-70
2021/06/04 05:11:33;;;;;;;15.98;5.18;;;15.20;77.00;;;;;;5099376;28;20385;-73
2021/06/04 05:14:18;;;;;;;16.38;3.83;;;15.20;77.10;;;;;;5092394;28;20379;-73
2021/06/04 05:17:24;;;;;;;11.30;4.00;;;15.20;77.00;;;;;;5099831;28;20055;-70
2021/06/04 05:20:30;;;;;;;16.67;4.85;;;15.20;77.00;;;;;;5094738;28;20020;-70
2021/06/04 05:23:37;;;;;;;12.60;4.65;;;15.20;77.00;;;;;;5096260;28;20012;-71
2021/06/04 05:26:43;;;;;;;14.15;4.22;;;15.10;76.90;;;;;;5095753;28;20540;-71
2021/06/04 05:29:49;;;;;;;15.98;4.60;;;15.10;76.80;;;;;;5093123;28;20047;-69
2021/06/04 05:32:17;;;;;;;14.80;5.30;;;15.10;76.80;;;;;;5090164;28;20030;-69
2021/06/04 05:34:44;;;;;;;15.98;4.53;;;15.10;76.70;;;;;;5092241;28;20066;-69
2021/06/04 05:37:10;;;;;;;11.20;4.13;;;15.10;76.70;;;;;;5088063;28;20435;-69
2021/06/04 05:40:16;;;;;;;15.02;4.72;;;15.10;76.80;;;;;;5093529;28;20058;-75
2021/06/04 05:43:22;;;;;;;10.32;3.80;;;15.10;76.80;;;;;;5085905;28;20028;-70
2021/06/04 05:46:28;;;;;;;15.32;5.70;;;15.10;76.70;;;;;;5093625;28;20024;-69
2021/06/04 05:49:34;;;;;;;13.13;4.57;;;15.10;76.80;;;;;;5086926;28;20024;-71
2021/06/04 05:52:41;;;;;;;12.38;4.93;;;15.10;76.80;;;;;;5088361;28;20437;-70
2021/06/04 05:55:48;;;;;;;15.10;5.85;;;15.00;76.90;;;;;;5092604;28;20026;-75
2021/06/04 05:58:54;;;;;;;14.95;5.25;;;15.10;77.50;;;;;;5092673;28;20024;-69
2021/06/04 06:02:00;;;;;;;18.02;5.47;;;15.10;77.10;;;;;;5089597;28;20091;-70
2021/06/04 06:05:06;;;;;;;10.93;4.47;;;15.10;77.20;;;;;;5092210;28;20020;-70
2021/06/04 06:08:12;;;;;;;13.48;5.35;;;15.10;77.50;;;;;;5092560;28;20075;-69
2021/06/04 06:11:21;;;;;;;16.02;5.32;;;15.00;77.50;;;;;;5083836;28;20021;-70
2021/06/04 06:14:27;;;;;;;19.27;6.15;;;15.00;77.70;;;;;;5091746;28;20020;-69
2021/06/04 06:17:33;;;;;;;15.07;5.05;;;15.00;77.90;;;;;;5088245;28;20028;-72
2021/06/04 06:20:39;;;;;;;18.15;6.90;;;15.10;78.10;;;;;;5088604;28;20020;-69
2021/06/04 06:23:45;;;;;;;15.52;5.72;;;15.10;78.20;;;;;;5089885;28;20455;-69
2021/06/04 06:26:55;;;;;;;17.17;6.03;;;15.10;78.30;;;;;;5092772;28;20039;-76
2021/06/04 06:30:01;;;;;;;17.73;7.05;;;15.10;78.50;;;;;;5087180;28;20390;-71
2021/06/04 06:33:07;;;;;;;14.45;5.70;;;15.10;78.60;;;;;;5089879;28;20032;-70
2021/06/04 06:35:36;;;;;;;14.95;6.13;;;15.00;78.60;;;;;;5091758;28;20036;-73
2021/06/04 06:38:42;;;;;;;14.10;5.95;;;15.10;78.90;;;;;;5092148;28;20036;-70
2021/06/04 06:41:48;;;;;;;22.70;7.68;;;15.10;79.00;;;;;;5088923;28;20020;-71
2021/06/04 06:44:54;;;;;;;20.67;8.32;;;15.10;79.10;;;;;;5100602;28;20023;-72
2021/06/04 06:48:00;;;;;;;20.63;6.82;;;15.10;79.30;;;;;;5092194;28;20111;-75
2021/06/04 06:51:08;;;;;;;17.55;7.93;;;15.10;79.40;;;;;;5090590;28;20101;-69
2021/06/04 06:54:15;;;;;;;23.85;9.25;;;15.10;79.50;;;;;;5094080;28;20024;-75
2021/06/04 06:57:21;;;;;;;20.95;8.98;;;15.10;79.80;;;;;;5094145;28;20077;-78
2021/06/04 07:00:28;;;;;;;19.58;10.00;;;15.10;79.90;;;;;;5096975;28;20026;-78
2021/06/04 07:03:34;;;;;;;20.45;8.40;;;15.20;80.10;;;;;;5093011;28;20082;-78
2021/06/04 07:06:40;;;;;;;28.27;13.15;;;15.20;80.30;;;;;;5095345;28;20020;-77
2021/06/04 07:09:46;;;;;;;29.67;11.80;;;15.20;80.50;;;;;;5092020;28;20028;-78
2021/06/04 07:12:52;;;;;;;24.42;11.95;;;15.20;80.60;;;;;;5098255;28;20028;-78
2021/06/04 07:15:58;;;;;;;20.20;10.55;;;15.20;80.90;;;;;;5091905;28;20024;-76
2021/06/04 07:19:04;;;;;;;24.25;9.05;;;15.20;81.00;;;;;;5092123;28;20039;-78
2021/06/04 07:22:10;;;;;;;21.25;10.20;;;15.20;81.10;;;;;;5089332;28;20093;-74
2021/06/04 07:25:16;;;;;;;21.92;9.95;;;15.30;81.40;;;;;;5089949;28;20028;-75
2021/06/04 07:28:22;;;;;;;25.63;8.45;;;15.30;81.40;;;;;;5092681;28;20040;-74
2021/06/04 07:31:30;;;;;;;21.15;8.15;;;15.30;81.50;;;;;;5094662;28;20107;-78
2021/06/04 07:34:36;;;;;;;28.48;10.65;;;15.30;81.70;;;;;;5088156;28;20438;-77
2021/06/04 07:37:42;;;;;;;19.65;9.45;;;15.30;81.90;;;;;;5093613;28;20076;-74
2021/06/04 07:40:48;;;;;;;23.30;9.32;;;15.40;82.10;;;;;;5098533;28;21783;-75
2021/06/04 07:43:54;;;;;;;24.17;9.48;;;15.40;82.00;;;;;;5084375;28;20020;-75
2021/06/04 07:47:00;;;;;;;21.77;8.98;;;15.50;82.20;;;;;;5089093;28;20074;-75
2021/06/04 07:50:06;;;;;;;27.15;8.95;;;15.50;82.30;;;;;;5091639;28;20020;-76
2021/06/04 07:53:13;;;;;;;21.80;10.13;;;15.50;82.30;;;;;;5090215;28;20028;-74
2021/06/04 07:56:19;;;;;;;23.50;9.25;;;15.50;82.30;;;;;;5089573;28;20024;-74
2021/06/04 07:59:25;;;;;;;16.05;7.85;;;15.60;82.40;;;;;;5093857;28;20040;-77
2021/06/04 08:02:31;;;;;;;16.25;7.28;;;15.60;82.40;;;;;;5081315;28;20391;-77
2021/06/04 10:14:50;;;;;;;12.65;4.05;;;16.60;76.60;;;;;;5082761;27;20464;-77
2021/06/04 10:19:55;;;;;;;16.88;4.15;;;17.30;74.30;;;;;;5026985;28;20038;-78
2021/06/04 10:22:56;;;;;;;12.18;3.72;;;17.40;73.80;;;;;;5030862;28;20025;-77
2021/06/04 10:25:26;;;;;;;15.43;3.40;;;17.50;72.80;;;;;;5028235;28;20492;-76
2021/06/04 10:27:55;;;;;;;20.55;4.53;;;17.60;72.10;;;;;;5031651;28;20094;-77
2021/06/04 10:30:22;;;;;;;10.63;4.10;;;17.70;71.90;;;;;;5029972;28;20028;-77
2021/06/04 10:32:54;;;;;;;6.45;3.05;;;17.80;71.60;;;;;;5026411;28;20029;-77
2021/06/04 10:35:32;;;;;;;15.02;3.97;;;17.80;71.60;;;;;;5037456;28;20060;-77
2021/06/04 10:38:30;;;;;;;11.82;3.60;;;17.90;71.50;;;;;;5024890;28;20022;-77
2021/06/04 10:41:09;;;;;;;9.98;3.15;;;18.00;71.50;;;;;;5024889;28;20488;-77
2021/06/04 10:44:09;;;;;;;12.10;3.38;;;18.10;71.10;;;;;;5035103;28;20045;-78
2021/06/04 10:46:55;;;;;;;13.90;3.65;;;18.20;70.80;;;;;;5026415;28;20034;-77
2021/06/04 10:49:38;;;;;;;;;;;18.20;69.90;;;;;;5029509;28;20522;-77
2021/06/04 10:52:33;;;;;;;8.73;3.65;;;18.30;69.90;;;;;;5027726;28;19913;-77
2021/06/04 10:55:19;;;;;;;13.05;3.83;;;18.40;69.70;;;;;;5027900;28;20357;-76
2021/06/04 10:58:43;;;;;;;8.75;4.00;;;18.40;69.40;;;;;;5028110;28;20385;-77
2021/06/04 11:01:18;;;;;;;10.35;3.72;;;18.50;68.90;;;;;;5021897;28;20427;-77
2021/06/04 11:03:57;;;;;;;;;;;18.60;68.40;;;;;;5026967;28;20037;-77
2021/06/04 11:06:50;;;;;;;13.75;4.57;;;18.70;67.90;;;;;;5029924;28;19909;-77
2021/06/04 11:09:51;;;;;;;12.68;3.92;;;18.70;67.70;;;;;;5027715;28;20514;-77
2021/06/04 11:12:48;;;;;;;13.32;5.50;;;18.80;67.60;;;;;;5004668;28;20539;-78
2021/06/04 11:15:27;;;;;;;17.20;4.47;;;18.90;67.10;;;;;;5020536;28;20439;-77
2021/06/04 11:18:10;;;;;;;12.23;5.13;;;19.00;65.90;;;;;;5014533;28;20040;-76
2021/06/04 11:20:43;;;;;;;12.68;4.93;;;19.00;65.50;;;;;;5011915;28;20022;-78
2021/06/04 11:23:44;;;;;;;13.13;4.63;;;19.10;65.70;;;;;;5015172;28;20029;-78
2021/06/04 11:26:23;;;;;;;16.90;4.72;;;19.20;65.70;;;;;;5009701;28;20452;-73
2021/06/04 11:29:01;;;;;;;10.60;4.45;;;19.20;65.20;;;;;;5015179;28;20495;-77
2021/06/04 11:31:38;;;;;;;18.30;5.82;;;19.30;65.40;;;;;;5015705;28;20116;-77
2021/06/04 11:34:19;;;;;;;9.23;3.97;;;19.30;64.70;;;;;;5014384;28;20413;-78
2021/06/04 11:36:47;;;;;;;14.80;4.65;;;19.30;64.20;;;;;;5013187;28;20474;-77
2021/06/04 11:39:30;;;;;;;15.88;4.60;;;19.40;63.90;;;;;;5012202;28;20014;-78
2021/06/04 11:42:00;;;;;;;9.50;4.35;;;19.40;63.50;;;;;;5009022;28;20045;-76
2021/06/04 11:44:41;;;;;;;14.35;4.05;;;19.50;63.50;;;;;;5014390;28;20026;-77
2021/06/04 11:47:14;;;;;;;16.25;6.15;;;19.50;63.30;;;;;;5011737;28;20034;-76
2021/06/04 11:50:01;;;;;;;18.60;5.00;;;19.60;63.10;;;;;;5013155;28;20401;-76
2021/06/04 11:52:33;;;;;;;11.23;4.97;;;19.70;63.20;;;;;;5016900;28;20488;-78
2021/06/04 11:55:29;;;;;;;16.35;4.43;;;19.70;63.10;;;;;;5012592;28;20096;-77
2021/06/04 11:57:56;;;;;;;12.50;4.38;;;19.70;62.50;;;;;;5023628;28;20069;-73
2021/06/04 12:00:25;;;;;;;12.38;4.65;;;19.70;62.30;;;;;;5010914;28;20026;-76
2021/06/04 12:03:17;;;;;;;10.63;4.78;;;19.80;62.60;;;;;;5012746;28;20034;-75
2021/06/04 12:05:48;;;;;;;10.18;4.75;;;19.80;62.30;;;;;;5014645;28;20048;-76
2021/06/04 12:08:27;;;;;;;11.25;3.92;;;19.90;61.60;;;;;;5011631;28;20022;-77
2021/06/04 12:10:53;;;;;;;11.75;5.20;;;19.90;61.50;;;;;;5013532;28;20443;-76
2021/06/04 12:13:37;;;;;;;16.35;4.13;;;19.90;61.60;;;;;;5010823;28;20038;-76
2021/06/04 12:16:29;;;;;;;11.85;4.43;;;19.90;61.90;;;;;;5012935;28;20032;-75
2021/06/04 12:19:03;;;;;;;18.48;4.68;;;20.00;62.20;;;;;;5012750;28;20034;-75
2021/06/04 12:21:39;;;;;;;11.07;4.53;;;20.00;62.30;;;;;;5010835;28;20029;-75
2021/06/04 12:24:18;;;;;;;8.18;3.67;;;20.00;62.20;;;;;;5014385;28;20101;-75
2021/06/04 12:26:54;;;;;;;16.45;4.85;;;20.10;62.20;;;;;;5010338;28;20167;-77
2021/06/04 12:29:26;;;;;;;10.80;4.38;;;20.10;62.00;;;;;;5026951;28;20072;-77
2021/06/04 12:32:14;;;;;;;12.43;4.32;;;20.10;61.90;;;;;;5015780;28;20087;-76
2021/06/04 12:34:41;;;;;;;9.18;4.47;;;20.20;61.90;;;;;;5011155;28;20040;-76
2021/06/04 12:37:40;;;;;;;9.50;3.80;;;20.20;61.80;;;;;;5012222;28;20056;-77
2021/06/04 12:40:25;;;;;;;8.15;3.40;;;20.20;61.40;;;;;;5006932;28;20056;-77
2021/06/04 12:43:23;;;;;;;14.40;3.15;;;20.20;61.00;;;;;;5012042;28;20018;-77
2021/06/04 12:46:11;;;;;;;12.63;3.53;;;20.20;60.80;;;;;;5015768;28;20033;-75
2021/06/04 12:48:41;;;;;;;7.47;3.47;;;20.30;60.90;;;;;;5016746;28;20022;-77
2021/06/04 12:51:16;;;;;;;12.68;4.18;;;20.30;60.50;;;;;;5013271;28;20094;-77
2021/06/04 12:53:48;;;;;;;14.75;3.63;;;20.30;60.80;;;;;;5015352;28;20040;-76
2021/06/04 12:56:26;;;;;;;11.30;2.58;;;20.30;60.60;;;;;;5012273;28;20500;-75
2021/06/04 12:59:07;;;;;;;9.13;3.17;;;20.30;60.50;;;;;;5011955;28;20037;-77
2021/06/04 13:01:57;;;;;;;8.70;4.47;;;20.40;60.30;;;;;;5013054;28;20377;-77
2021/06/04 13:04:28;;;;;;;6.72;3.15;;;20.40;60.00;;;;;;5010842;28;20033;-77
2021/06/04 13:06:57;;;;;;;11.63;3.67;;;20.40;59.20;;;;;;5015184;28;20069;-74
2021/06/04 13:09:26;;;;;;;7.22;3.63;;;20.40;59.20;;;;;;5011995;28;20101;-76
2021/06/04 13:11:52;;;;;;;5.68;2.08;;;20.40;58.70;;;;;;5013184;28;20038;-75
2021/06/04 13:14:33;;;;;;;4.78;2.85;;;20.40;58.40;;;;;;5011848;28;20046;-81
2021/06/04 13:17:17;;;;;;;6.22;2.85;;;20.40;58.00;;;;;;5008183;28;20036;-77
2021/06/04 13:19:44;;;;;;;5.57;2.58;;;20.40;58.10;;;;;;5011927;28;20033;-74
2021/06/04 13:22:26;;;;;;;25.85;17.35;;;20.40;58.10;;;;;;5018140;28;20023;-79
2021/06/04 13:24:58;;;;;;;12.05;8.90;;;20.40;58.00;;;;;;5013574;28;20070;-72
2021/06/04 13:27:31;;;;;;;13.50;5.97;;;20.40;57.90;;;;;;5018725;28;20060;-79
2021/06/04 13:30:01;;;;;;;11.77;4.57;;;20.40;57.80;;;;;;5015007;28;20117;-82
2021/06/04 13:33:00;;;;;;;8.15;3.28;;;20.40;57.90;;;;;;5031509;28;20105;-79
2021/06/04 13:35:37;;;;;;;9.25;3.80;;;20.40;57.60;;;;;;5007591;28;20088;-77
2021/06/04 13:38:15;;;;;;;14.73;7.63;;;20.40;57.90;;;;;;5012397;28;20026;-83
2021/06/04 13:40:43;;;;;;;17.38;10.30;;;20.40;58.50;;;;;;5012681;28;20040;-83
2021/06/04 13:43:40;;;;;;;19.50;9.95;;;20.40;58.60;;;;;;5012130;28;20864;-83
2021/06/04 13:46:19;;;;;;;16.15;8.95;;;20.30;58.70;;;;;;5012066;28;20018;-77
2021/06/04 13:49:23;;;;;;;19.95;8.18;;;20.30;59.70;;;;;;5016104;28;20367;-75
2021/06/04 13:51:59;;;;;;;16.05;6.60;;;20.20;59.40;;;;;;5017767;28;20042;-75
2021/06/04 13:54:36;;;;;;;14.05;6.75;;;20.20;59.80;;;;;;5012624;28;20145;-83
2021/06/04 13:57:29;;;;;;;21.58;6.60;;;20.20;60.00;;;;;;5012619;28;20022;-79
2021/06/04 14:00:14;;;;;;;11.40;4.90;;;20.20;60.50;;;;;;5010621;28;20025;-82
2021/06/04 14:02:43;;;;;;;10.98;4.57;;;20.20;60.90;;;;;;5017410;28;20018;-82
2021/06/04 14:05:28;;;;;;;19.92;7.00;;;20.10;61.10;;;;;;5018741;28;20026;-85
2021/06/04 14:08:21;;;;;;;13.65;6.03;;;20.10;61.20;;;;;;5016645;28;20092;-83
2021/06/04 14:10:47;;;;;;;11.38;5.35;;;20.10;61.40;;;;;;5013890;28;20034;-86
2021/06/04 14:13:16;;;;;;;14.38;5.50;;;20.00;61.40;;;;;;5021254;28;20492;-86
2021/06/04 14:15:48;;;;;;;9.70;4.88;;;20.00;61.50;;;;;;5025225;28;20393;-83
2021/06/04 14:18:34;;;;;;;16.17;5.45;;;19.90;61.50;;;;;;5010229;28;20025;-76
2021/06/04 14:21:28;;;;;;;12.85;3.72;;;19.90;59.60;;;;;;5011528;28;20048;-74
2021/06/04 14:24:11;;;;;;;7.60;3.80;;;19.90;58.80;;;;;;5025573;28;20129;-78
2021/06/04 14:26:50;;;;;;;10.20;3.38;;;20.00;58.20;;;;;;5012952;28;20018;-78
2021/06/04 14:29:27;;;;;;;11.05;4.28;;;19.90;58.00;;;;;;5014398;28;20068;-78
2021/06/04 14:32:03;;;;;;;13.05;3.90;;;19.90;59.20;;;;;;5008763;28;20081;-74
2021/06/04 14:34:39;;;;;;;14.05;4.85;;;19.80;60.80;;;;;;5012329;28;20058;-73
2021/06/04 14:37:30;;;;;;;14.13;4.18;;;19.80;62.10;;;;;;5014996;28;20037;-74
2021/06/04 14:39:56;;;;;;;44.88;27.15;;;19.70;62.90;;;;;;5009483;28;20048;-74
2021/06/04 14:42:25;;;;;;;34.72;24.42;;;19.60;63.70;;;;;;5011755;28;20064;-74
2021/06/04 14:44:52;;;;;;;14.75;6.88;;;19.60;64.80;;;;;;5007529;28;20110;-75
2021/06/04 14:47:30;;;;;;;15.00;4.55;;;19.50;65.80;;;;;;5011861;28;20033;-72
2021/06/04 14:49:57;;;;;;;16.73;3.50;;;19.50;66.70;;;;;;5015196;28;20029;-74
2021/06/04 14:52:25;;;;;;;16.70;4.60;;;19.40;67.40;;;;;;5017173;28;20037;-75
2021/06/04 14:54:56;;;;;;;11.43;5.75;;;19.40;67.80;;;;;;5021067;28;20045;-74
2021/06/04 14:57:23;;;;;;;16.67;4.38;;;19.30;68.00;;;;;;5017645;28;20022;-74
2021/06/04 14:59:51;;;;;;;17.45;6.68;;;19.30;68.40;;;;;;5012604;28;20591;-73
2021/06/04 15:02:24;;;;;;;15.98;5.53;;;19.30;68.90;;;;;;5015650;28;20025;-71
2021/06/04 15:04:52;;;;;;;14.77;7.75;;;19.20;69.30;;;;;;5013700;28;20036;-72
2021/06/04 15:07:20;;;;;;;19.67;5.75;;;19.20;69.70;;;;;;5016051;28;20036;-69
2021/06/04 15:09:47;;;;;;;14.57;5.60;;;19.20;69.70;;;;;;5012992;28;20085;-70
2021/06/04 15:12:16;;;;;;;11.50;5.22;;;19.10;69.70;;;;;;5008430;28;20439;-71
2021/06/04 15:14:44;;;;;;;17.58;5.03;;;19.10;69.80;;;;;;5015886;28;20052;-70
2021/06/04 15:17:11;;;;;;;15.82;5.13;;;19.00;69.80;;;;;;5012682;28;20387;-71
2021/06/04 15:19:38;;;;;;;13.57;5.10;;;19.00;70.00;;;;;;5021153;28;20120;-71
2021/06/04 15:22:05;;;;;;;12.27;4.90;;;18.90;70.10;;;;;;5011122;28;20485;-71
2021/06/04 15:24:33;;;;;;;14.38;5.45;;;18.90;70.30;;;;;;5012858;28;20068;-71
2021/06/04 15:27:01;;;;;;;13.65;4.55;;;18.80;70.40;;;;;;5012100;28;20412;-70
2021/06/04 15:29:27;;;;;;;15.30;5.72;;;18.80;70.70;;;;;;5015546;28;20018;-71
2021/06/04 15:31:55;;;;;;;18.40;6.20;;;18.80;70.90;;;;;;5009348;28;20034;-70
2021/06/04 15:34:23;;;;;;;24.52;9.35;;;18.80;71.20;;;;;;5013063;28;20472;-70
2021/06/04 15:36:50;;;;;;;14.55;5.70;;;18.70;71.40;;;;;;5012260;28;20875;-70
2021/06/04 15:39:18;;;;;;;18.33;5.93;;;18.70;71.70;;;;;;5020441;28;20391;-70
2021/06/04 15:41:46;;;;;;;15.52;4.90;;;18.70;72.00;;;;;;5025040;28;20026;-70
2021/06/04 15:44:15;;;;;;;14.85;5.60;;;18.60;72.10;;;;;;5014566;28;20113;-71
2021/06/04 15:46:43;;;;;;;16.55;5.68;;;18.60;72.20;;;;;;5014450;28;20416;-71
2021/06/04 15:49:10;;;;;;;16.52;6.65;;;18.50;72.40;;;;;;5017486;28;20022;-71
2021/06/04 15:51:39;;;;;;;28.73;12.80;;;18.50;72.50;;;;;;5013264;28;20026;-70
2021/06/04 15:54:06;;;;;;;19.40;11.93;;;18.50;72.60;;;;;;5011316;28;20026;-71
2021/06/04 15:56:34;;;;;;;24.42;13.98;;;18.40;72.60;;;;;;5016997;28;20095;-71
2021/06/04 15:59:01;;;;;;;25.63;11.98;;;18.40;72.80;;;;;;5016594;28;20113;-71